createdAt,value
2018-03-14T00:04:06.403Z,7.12
2018-03-14T00:09:56.972Z,7.35
2018-03-14T00:15:47.612Z,9.37
2018-03-14T00:21:38.229Z,8.56
2018-03-14T00:27:28.827Z,9.06
2018-03-14T00:33:19.529Z,10.91
2018-03-14T00:39:10.132Z,7.57
2018-03-14T00:45:00.722Z,9.74
2018-03-14T00:50:51.354Z,7.71
2018-03-14T00:56:41.984Z,8.54
2018-03-14T01:02:32.628Z,13.15
2018-03-14T01:08:23.190Z,8.39
2018-03-14T01:14:13.864Z,18.57
2018-03-14T01:20:04.454Z,13.44
2018-03-14T01:25:55.127Z,10.34
2018-03-14T01:31:45.722Z,10.12
2018-03-14T01:37:36.359Z,11.14
2018-03-14T01:43:26.963Z,13.21
2018-03-14T01:49:17.599Z,12.18
2018-03-14T01:55:08.223Z,13.87
2018-03-14T02:00:58.866Z,11.63
2018-03-14T02:06:49.459Z,10.07
2018-03-14T02:12:40.086Z,10.81
2018-03-14T02:18:30.704Z,7.71
2018-03-14T02:24:21.312Z,10.88
2018-03-14T02:30:11.936Z,10.95
2018-03-14T02:36:02.575Z,9.46
2018-03-14T02:41:53.153Z,12.01
2018-03-14T02:47:43.885Z,8.69
2018-03-14T02:53:34.409Z,11.23
2018-03-14T02:59:25.023Z,10.89
2018-03-14T03:05:15.668Z,9.19
2018-03-14T03:11:06.248Z,7.35
2018-03-14T03:16:56.996Z,8.42
2018-03-14T03:22:47.503Z,7
2018-03-14T03:28:38.147Z,6.6
2018-03-14T03:34:28.746Z,9
2018-03-14T03:40:19.312Z,7.74
2018-03-14T03:46:09.919Z,8.96
2018-03-14T03:52:00.588Z,12.03
2018-03-14T03:57:51.203Z,9.07
2018-03-14T04:03:41.816Z,8.09
2018-03-14T04:09:32.399Z,8.16
2018-03-14T04:15:23.030Z,9.26
2018-03-14T04:21:13.624Z,9.28
2018-03-14T04:27:04.235Z,11.16
2018-03-14T04:32:54.866Z,18.42
2018-03-14T04:38:45.488Z,8.89
2018-03-14T04:44:36.120Z,8.98
2018-03-14T04:50:26.730Z,7.03
2018-03-14T04:56:17.288Z,9.48
2018-03-14T05:02:07.960Z,8.66
2018-03-14T05:07:58.526Z,11.41
2018-03-14T05:13:49.225Z,10.64
2018-03-14T05:19:39.780Z,11.04
2018-03-14T05:25:30.423Z,12.24
2018-03-14T05:31:21.030Z,8.49
2018-03-14T05:37:11.622Z,14.51
2018-03-14T05:43:02.242Z,8.78
2018-03-14T05:48:52.825Z,16.3
2018-03-14T05:54:43.562Z,11.71
2018-03-14T06:00:34.119Z,10.64
2018-03-14T06:06:24.692Z,9.84
2018-03-14T06:12:15.371Z,8.97
2018-03-14T06:18:06.002Z,10.39
2018-03-14T06:23:56.714Z,12.07
2018-03-14T06:29:47.307Z,14.56
2018-03-14T06:35:37.819Z,17.36
2018-03-14T06:41:28.462Z,18.78
2018-03-14T06:47:19.089Z,19.4
2018-03-14T06:53:09.740Z,15.43
2018-03-14T06:59:00.355Z,16.37
2018-03-14T07:04:50.993Z,15.76
2018-03-14T07:10:41.557Z,12.96
2018-03-14T07:16:32.174Z,15.15
2018-03-14T07:22:22.866Z,12.42
2018-03-14T07:28:13.439Z,13.37
2018-03-14T07:34:04.111Z,15.96
2018-03-14T07:39:54.694Z,20.54
2018-03-14T07:45:45.319Z,18.64
2018-03-14T07:51:35.959Z,19.57
2018-03-14T07:57:26.631Z,18.48
2018-03-14T08:03:17.205Z,17.28
2018-03-14T08:09:07.940Z,13.67
2018-03-14T08:14:58.474Z,17.22
2018-03-14T08:20:49.144Z,11.81
2018-03-14T08:26:39.749Z,13.73
2018-03-14T08:32:30.427Z,14.98
2018-03-14T08:38:21.079Z,19.39
2018-03-14T08:44:11.704Z,12.41
2018-03-14T08:50:02.389Z,16.45
2018-03-14T08:55:52.982Z,18.32
2018-03-14T09:01:43.670Z,20.02
2018-03-14T09:07:34.328Z,20.5
2018-03-14T09:13:24.954Z,14.15
2018-03-14T09:19:15.683Z,14.57
2018-03-14T09:25:06.231Z,21.4
2018-03-14T09:30:56.906Z,14.86
2018-03-14T09:36:47.581Z,17.9
2018-03-14T09:42:38.210Z,8.9
2018-03-14T09:48:28.935Z,10.4
2018-03-14T09:54:19.519Z,11.48
2018-03-14T10:00:10.173Z,7.58
2018-03-14T10:06:00.975Z,13.3
2018-03-14T10:11:51.553Z,12.02
2018-03-14T10:17:42.199Z,9.58
2018-03-14T10:23:32.893Z,9.64
2018-03-14T10:29:23.581Z,10.81
2018-03-14T10:35:14.282Z,6.13
2018-03-14T10:41:04.953Z,5.16
2018-03-14T10:46:55.526Z,8.49
2018-03-14T10:52:46.241Z,13.2
2018-03-14T10:58:36.923Z,8.92
2018-03-14T11:04:27.641Z,4.52
2018-03-14T11:10:18.308Z,9.38
2018-03-14T11:16:08.953Z,6.8
2018-03-14T11:21:59.648Z,3.58
2018-03-14T11:27:50.291Z,5.31
2018-03-14T11:33:41.013Z,8.15
2018-03-14T11:39:31.639Z,5.98
2018-03-14T11:45:22.402Z,6.99
2018-03-14T11:51:12.985Z,10.1
2018-03-14T11:57:03.673Z,6.22
2018-03-14T12:02:54.369Z,6.19
2018-03-14T12:08:45.173Z,9.68
2018-03-14T12:14:35.729Z,6.01
2018-03-14T12:20:26.436Z,2.77
2018-03-14T12:26:17.088Z,6.34
2018-03-14T12:32:07.785Z,13.79
2018-03-14T12:37:58.518Z,5.05
2018-03-14T12:43:49.157Z,6.04
2018-03-14T12:49:39.857Z,4.86
2018-03-14T12:55:30.539Z,7.67
2018-03-14T13:01:21.234Z,9.52
2018-03-14T13:07:11.871Z,7.81
2018-03-14T13:13:02.603Z,3.04
2018-03-14T13:18:53.365Z,8.24
2018-03-14T13:24:43.963Z,5.85
2018-03-14T13:30:34.717Z,8.15
2018-03-14T13:36:25.364Z,7.66
2018-03-14T13:42:16.086Z,3.64
2018-03-14T13:48:06.872Z,8.98
2018-03-14T13:53:57.521Z,3.52
2018-03-14T13:59:48.342Z,7.49
2018-03-14T14:05:39.099Z,3.79
2018-03-14T14:11:29.829Z,4.31
2018-03-14T14:17:20.555Z,4.26
2018-03-14T14:23:11.379Z,6.57
2018-03-14T14:29:02.115Z,3.39
2018-03-14T14:34:52.885Z,5.16
2018-03-14T14:40:43.605Z,9.1
2018-03-14T14:46:34.335Z,6.16
2018-03-14T14:52:25.130Z,4.72
2018-03-14T14:58:15.799Z,8.07
2018-03-14T15:04:06.547Z,6.92
2018-03-14T15:09:57.286Z,5.18
2018-03-14T15:15:48.028Z,11.82
2018-03-14T15:21:38.747Z,6.42
2018-03-14T15:27:29.598Z,6.67
2018-03-14T15:33:20.234Z,4.07
2018-03-14T15:39:11.018Z,7.27
2018-03-14T15:45:01.828Z,8.55
2018-03-14T15:50:52.466Z,6.03
2018-03-14T15:56:43.211Z,8.09
2018-03-14T16:02:33.894Z,6.9
2018-03-14T16:08:24.604Z,7.76
2018-03-14T16:14:15.364Z,10.18
2018-03-14T16:20:06.044Z,10.45
2018-03-14T16:25:56.762Z,11.26
2018-03-14T16:31:47.494Z,14.98
2018-03-14T16:37:38.086Z,5.12
2018-03-14T16:43:28.780Z,11.16
2018-03-14T16:49:19.455Z,8.9
2018-03-14T16:55:10.364Z,10.02
2018-03-14T17:01:00.815Z,3.22
2018-03-14T17:06:51.541Z,8.62
2018-03-14T17:12:42.256Z,7.53
2018-03-14T17:18:32.921Z,7.34
2018-03-14T17:24:23.563Z,8.76
2018-03-14T17:30:14.195Z,12.93
2018-03-14T17:36:04.850Z,10.64
2018-03-14T17:41:55.518Z,14.94
2018-03-14T17:47:46.161Z,11.93
2018-03-14T17:53:36.830Z,12.27
2018-03-14T17:59:27.520Z,12.25
2018-03-14T18:05:18.227Z,10.9
2018-03-14T18:11:08.799Z,11.36
2018-03-14T18:16:59.486Z,11.69
2018-03-14T18:22:50.203Z,10.12
2018-03-14T18:28:40.806Z,6.22
2018-03-14T18:34:31.461Z,17.54
2018-03-14T18:40:22.090Z,16.12
2018-03-14T18:46:12.819Z,13.61
2018-03-14T18:52:03.476Z,15.39
2018-03-14T18:57:54.148Z,14.19
2018-03-14T19:03:44.735Z,19.44
2018-03-14T19:09:35.398Z,11.83
2018-03-14T19:15:26.025Z,13.44
2018-03-14T19:21:16.627Z,17.9
2018-03-14T19:27:07.296Z,19.5
2018-03-14T19:32:57.938Z,23.39
2018-03-14T19:38:48.563Z,11.83
2018-03-14T19:44:39.240Z,20.18
2018-03-14T19:50:29.890Z,19.66
2018-03-14T19:56:20.572Z,28.48
2018-03-14T20:02:11.208Z,12.98
2018-03-14T20:08:01.854Z,23.85
2018-03-14T20:13:52.461Z,17.49
2018-03-14T20:19:43.060Z,22.97
2018-03-14T20:25:33.763Z,33.01
2018-03-14T20:31:24.461Z,24.48
2018-03-14T20:37:15.055Z,30.35
2018-03-14T20:43:05.677Z,18.95
2018-03-14T20:48:56.281Z,27.63
2018-03-14T20:54:46.947Z,29.09
2018-03-14T21:00:37.525Z,27.78
2018-03-14T21:06:28.252Z,24.24
2018-03-14T21:12:18.845Z,21.77
2018-03-14T21:18:09.391Z,21.26
2018-03-14T21:24:00.056Z,24
2018-03-14T21:29:50.642Z,22.46
2018-03-14T21:35:41.292Z,25.17
2018-03-14T21:41:31.970Z,20.19
2018-03-14T21:47:22.535Z,22.88
2018-03-14T21:53:13.187Z,25.85
2018-03-14T21:59:03.872Z,16.93
2018-03-14T22:04:54.418Z,16.62
2018-03-14T22:10:45.147Z,19.16
2018-03-14T22:16:35.740Z,20.54
2018-03-14T22:22:26.333Z,18.6
2018-03-14T22:28:16.947Z,20.69
2018-03-14T22:34:07.580Z,21.72
2018-03-14T22:39:58.201Z,23.85
2018-03-14T22:45:48.820Z,20.68
2018-03-14T22:51:39.391Z,23.51
2018-03-14T22:57:30.010Z,20.86
2018-03-14T23:03:20.624Z,16.48
2018-03-14T23:09:11.285Z,24.95
2018-03-14T23:15:01.863Z,22.3
2018-03-14T23:20:52.456Z,19.35
2018-03-14T23:26:43.084Z,18.79
2018-03-14T23:32:33.738Z,19.99
2018-03-14T23:38:24.294Z,14.37
2018-03-14T23:44:14.941Z,21.58
2018-03-14T23:50:05.619Z,22.75
2018-03-14T23:55:56.196Z,13.11
